Time;durP1;ratioP1;P1;durP2;ratioP2;P2;SDS_P1;SDS_P2;PMS_P1;PMS_P2;Temp;Humidity;BMP_temperature;BMP_pressure;BME280_temperature;BME280_humidity;BME280_pressure;Samples;Min_cycle;Max_cycle;Signal;HPM_P1;HPM_P2
2022/06/07 00:00:58;;;;;;;4.38;2.67;;;;;;;16.22;67.86;100920.41;5027002;28;20049;-71
2022/06/07 00:03:25;;;;;;;6.10;2.90;;;;;;;16.26;67.66;100916.56;5014752;28;20099;-71
2022/06/07 00:05:51;;;;;;;3.15;2.47;;;;;;;16.29;67.76;100910.25;5023687;28;20629;-71
2022/06/07 00:08:19;;;;;;;3.03;2.20;;;;;;;16.68;66.18;100917.06;5026168;28;20445;-71
2022/06/07 00:10:46;;;;;;;3.42;2.40;;;;;;;16.81;65.67;100917.88;5024479;28;20049;-71
2022/06/07 00:13:13;;;;;;;3.97;2.40;;;;;;;16.62;65.92;100915.75;5024027;28;20508;-71
2022/06/07 00:15:41;;;;;;;3.30;2.13;;;;;;;16.47;65.64;100920.34;5025673;28;20050;-71
2022/06/07 00:18:08;;;;;;;3.78;2.13;;;;;;;16.57;65.01;100927.63;5024046;28;20482;-71
2022/06/07 00:20:34;;;;;;;3.80;2.40;;;;;;;16.57;64.09;100919.66;5023834;28;20678;-71
2022/06/07 00:23:01;;;;;;;9.80;2.60;;;;;;;16.39;64.58;100914.75;5027235;28;20111;-71
2022/06/07 00:25:29;;;;;;;4.00;2.20;;;;;;;16.20;64.86;100917.03;5027952;28;20166;-71
2022/06/07 00:27:56;;;;;;;5.97;3.63;;;;;;;15.89;66.04;100914.91;5023493;28;20042;-71
2022/06/07 00:30:23;;;;;;;3.40;2.03;;;;;;;15.49;68.24;100917.69;5025133;28;20049;-71
2022/06/07 00:32:50;;;;;;;3.67;2.30;;;;;;;15.17;69.90;100920.81;5035653;28;20126;-71
2022/06/07 00:35:16;;;;;;;3.65;2.22;;;;;;;15.33;69.78;100916.19;5032812;28;20104;-71
2022/06/07 00:37:42;;;;;;;5.25;1.80;;;;;;;15.24;70.25;100919.44;5026641;28;20560;-71
2022/06/07 00:40:10;;;;;;;4.70;2.28;;;;;;;15.24;70.31;100917.63;5036350;28;20508;-71
2022/06/07 00:42:38;;;;;;;2.65;2.00;;;;;;;15.22;70.24;100919.56;5025239;28;20045;-71
2022/06/07 00:45:05;;;;;;;3.95;2.20;;;;;;;15.32;69.65;100917.97;5025688;28;20100;-71
2022/06/07 00:47:32;;;;;;;5.20;2.35;;;;;;;15.25;69.76;100914.06;5024180;28;20105;-71
2022/06/07 00:50:03;;;;;;;6.20;2.33;;;;;;;15.20;70.56;100920.59;5023995;28;20115;-71
2022/06/07 00:52:32;;;;;;;3.15;2.30;;;;;;;15.18;70.79;100922.50;5021541;28;20049;-71
2022/06/07 00:54:59;;;;;;;3.35;2.17;;;;;;;15.21;70.88;100924.94;5025861;28;20103;-71
2022/06/07 00:57:26;;;;;;;4.47;2.40;;;;;;;15.19;70.69;100914.44;5024998;28;20076;-72
2022/06/07 00:59:54;;;;;;;5.90;2.50;;;;;;;15.24;70.16;100920.28;5025710;28;20049;-72
2022/06/07 01:02:21;;;;;;;3.60;2.30;;;;;;;15.14;70.08;100921.88;5026387;28;20049;-72
2022/06/07 01:04:48;;;;;;;5.50;2.55;;;;;;;15.33;69.71;100916.19;5023877;28;20049;-72
2022/06/07 01:12:43;;;;;;;3.28;2.20;;;;;;;15.63;67.97;100908.78;5024864;28;20056;-72
2022/06/07 01:15:12;;;;;;;3.67;2.00;;;;;;;15.32;68.85;100911.84;5024267;28;20048;-72
2022/06/07 01:17:38;;;;;;;2.97;1.67;;;;;;;15.69;67.54;100907.53;5019965;28;20565;-71
2022/06/07 01:20:06;;;;;;;4.15;1.90;;;;;;;15.78;67.00;100904.25;5023256;28;20045;-72
2022/06/07 01:22:34;;;;;;;2.88;2.10;;;;;;;15.93;66.07;100901.34;5022989;28;20139;-72
2022/06/07 01:25:00;;;;;;;4.07;1.92;;;;;;;16.20;65.05;100893.22;5025899;28;20490;-72
2022/06/07 01:27:27;;;;;;;3.55;1.90;;;;;;;16.07;65.50;100898.53;5030262;28;20054;-72
2022/06/07 01:29:53;;;;;;;3.72;1.90;;;;;;;16.46;64.11;100891.31;5023240;28;20163;-72
2022/06/07 01:32:19;;;;;;;4.55;1.88;;;;;;;16.72;63.44;100892.06;5024851;28;20104;-72
2022/06/07 01:34:46;;;;;;;3.58;2.10;;;;;;;16.77;63.93;100882.81;5024300;28;20049;-72
2022/06/07 01:37:16;;;;;;;3.47;1.90;;;;;;;16.43;64.52;100879.16;5022098;28;20046;-72
2022/06/07 01:42:27;;;;;;;3.75;2.10;;;;;;;16.62;63.73;100876.03;5002343;28;20048;-72
2022/06/07 01:44:54;;;;;;;3.72;1.90;;;;;;;16.64;63.36;100862.66;5005267;28;20115;-72
2022/06/07 01:47:23;;;;;;;5.60;2.42;;;;;;;16.72;62.80;100878.81;5027216;28;20045;-71
2022/06/07 01:49:51;;;;;;;9.07;3.67;;;;;;;16.75;62.18;100873.28;5004245;28;20049;-72
2022/06/07 01:52:21;;;;;;;4.85;1.95;;;;;;;16.52;63.59;100878.47;5022214;28;20049;-72
2022/06/07 01:54:48;;;;;;;4.28;1.85;;;;;;;16.63;63.06;100879.53;5024133;28;20049;-72
2022/06/07 01:57:15;;;;;;;6.25;1.98;;;;;;;16.54;64.05;100873.91;5022551;28;20053;-72
2022/06/07 01:59:42;;;;;;;4.20;1.77;;;;;;;16.40;64.11;100870.59;5023544;28;20042;-72
2022/06/07 02:02:09;;;;;;;3.28;1.80;;;;;;;16.05;65.59;100884.59;5024558;28;20127;-72
2022/06/07 02:04:36;;;;;;;2.63;1.77;;;;;;;16.21;65.46;100879.03;5022933;28;20053;-72
2022/06/07 02:07:04;;;;;;;5.68;1.92;;;;;;;16.06;66.03;100883.66;5024084;28;20072;-72
2022/06/07 02:09:30;;;;;;;3.10;1.90;;;;;;;15.83;67.65;100883.59;5022539;28;20056;-72
2022/06/07 02:11:58;;;;;;;2.92;2.00;;;;;;;15.76;67.12;100872.63;5035866;28;20085;-72
2022/06/07 02:14:24;;;;;;;3.65;1.85;;;;;;;15.57;68.21;100875.72;5023508;28;20046;-72
2022/06/07 02:16:51;;;;;;;5.03;1.90;;;;;;;15.66;67.82;100887.44;5023364;28;20049;-72
2022/06/07 02:19:17;;;;;;;4.47;1.98;;;;;;;15.68;67.94;100876.75;5022705;28;20042;-72
2022/06/07 02:21:44;;;;;;;4.10;1.98;;;;;;;15.68;67.80;100871.44;5024420;28;20045;-68
2022/06/07 02:24:10;;;;;;;3.83;2.30;;;;;;;15.36;69.40;100874.53;5024607;28;20103;-68
2022/06/07 02:26:40;;;;;;;3.97;2.00;;;;;;;15.32;69.62;100875.69;5039681;28;20044;-68
2022/06/07 02:29:12;;;;;;;5.43;2.10;;;;;;;15.13;70.49;100875.25;5032346;28;20049;-69
2022/06/07 02:31:41;;;;;;;4.60;2.10;;;;;;;15.05;70.91;100877.56;5024612;28;20126;-70
2022/06/07 02:34:09;;;;;;;5.07;2.10;;;;;;;15.20;70.66;100865.97;5022047;28;20053;-69
2022/06/07 02:36:37;;;;;;;8.30;2.10;;;;;;;15.05;71.32;100880.22;5023396;28;20045;-68
2022/06/07 02:39:04;;;;;;;7.22;2.30;;;;;;;14.84;72.05;100881.66;5024122;28;20049;-68
2022/06/07 02:41:33;;;;;;;4.18;2.08;;;;;;;14.32;74.26;100884.22;5028385;28;20102;-68
2022/06/07 02:44:01;;;;;;;4.20;2.25;;;;;;;14.18;75.27;100877.22;5046875;28;20037;-68
2022/06/07 02:46:28;;;;;;;4.40;2.17;;;;;;;14.19;75.29;100888.63;5033544;28;20045;-68
2022/06/07 02:48:55;;;;;;;5.00;2.28;;;;;;;14.49;74.16;100882.22;5025531;28;20130;-69
2022/06/07 02:51:21;;;;;;;4.60;2.47;;;;;;;15.13;71.47;100877.91;5027620;28;20068;-68
2022/06/07 02:53:47;;;;;;;4.80;2.58;;;;;;;15.38;69.73;100883.19;5027147;28;20103;-69
2022/06/07 02:56:14;;;;;;;4.80;2.90;;;;;;;14.98;70.87;100878.94;5026513;28;20103;-68
2022/06/07 02:58:40;;;;;;;5.68;2.80;;;;;;;14.78;72.11;100876.81;5026097;28;20049;-68
2022/06/07 03:01:06;;;;;;;3.75;2.58;;;;;;;14.29;73.84;100884.44;5026968;28;20053;-68
2022/06/07 03:03:34;;;;;;;5.22;2.92;;;;;;;14.58;72.78;100883.41;5025026;28;20102;-68
2022/06/07 03:06:00;;;;;;;3.20;2.50;;;;;;;14.31;73.93;100888.66;5026489;28;20560;-69
2022/06/07 03:08:30;;;;;;;5.35;2.70;;;;;;;14.17;74.72;100880.78;5027985;28;20057;-68
2022/06/07 03:10:57;;;;;;;6.93;3.20;;;;;;;13.87;75.98;100883.56;5025956;28;20498;-68
2022/06/07 03:13:24;;;;;;;3.72;2.83;;;;;;;13.85;75.66;100885.47;5025929;28;20076;-68
2022/06/07 03:15:52;;;;;;;5.65;3.20;;;;;;;14.17;74.60;100886.06;5026290;28;20575;-68
2022/06/07 03:18:18;;;;;;;4.13;2.80;;;;;;;14.13;74.49;100887.19;5026811;28;20088;-68
2022/06/07 03:20:47;;;;;;;4.15;2.75;;;;;;;14.57;72.83;100877.28;5025016;28;20042;-68
2022/06/07 03:23:13;;;;;;;5.68;2.88;;;;;;;14.61;73.12;100883.19;5025867;28;20051;-68
2022/06/07 03:25:40;;;;;;;4.55;2.95;;;;;;;14.92;71.34;100882.00;5027130;28;20103;-68
2022/06/07 03:28:06;;;;;;;4.68;2.83;;;;;;;14.70;72.32;100887.03;5025039;28;20229;-68
2022/06/07 03:30:33;;;;;;;6.72;3.22;;;;;;;15.08;71.20;100877.38;5026940;28;20506;-68
2022/06/07 03:33:00;;;;;;;7.75;3.33;;;;;;;15.51;69.25;100875.31;5027142;28;20487;-68
2022/06/07 03:35:27;;;;;;;6.93;2.90;;;;;;;15.31;70.31;100874.00;5025659;28;20107;-67
2022/06/07 03:37:54;;;;;;;4.03;2.90;;;;;;;15.18;70.52;100864.41;5027525;28;20512;-67
2022/06/07 03:43:03;;;;;;;4.97;3.03;;;;;;;15.34;70.75;100870.28;5025898;28;20399;-68
2022/06/07 03:45:30;;;;;;;9.55;3.13;;;;;;;15.76;68.91;100874.41;5025511;28;20054;-67
2022/06/07 03:47:57;;;;;;;5.30;2.67;;;;;;;15.69;68.80;100876.66;5025768;28;20433;-68
2022/06/07 03:50:23;;;;;;;5.85;2.90;;;;;;;15.91;68.04;100868.03;5025366;28;20045;-68
2022/06/07 03:52:49;;;;;;;6.80;2.88;;;;;;;16.22;67.32;100871.97;5024741;28;20131;-68
2022/06/07 03:55:18;;;;;;;4.68;2.72;;;;;;;15.51;69.50;100865.56;5025718;28;20045;-68
2022/06/07 03:57:44;;;;;;;5.50;2.60;;;;;;;15.67;69.86;100867.16;5026337;28;20359;-68
2022/06/07 04:00:11;;;;;;;4.32;2.90;;;;;;;15.58;70.15;100864.19;5004208;28;20049;-68
2022/06/07 04:02:38;;;;;;;4.75;2.88;;;;;;;15.35;70.33;100858.78;5006308;28;20104;-68
2022/06/07 04:05:05;;;;;;;6.78;3.03;;;;;;;15.22;71.45;100861.44;5014406;28;20099;-68
2022/06/07 04:10:15;;;;;;;4.72;2.88;;;;;;;15.33;71.02;100864.19;5026285;28;20187;-68
2022/06/07 04:12:43;;;;;;;7.57;2.88;;;;;;;15.11;71.97;100858.69;5024887;28;20112;-68
2022/06/07 04:15:10;;;;;;;4.85;3.47;;;;;;;15.11;72.01;100858.69;5026068;28;20049;-68
2022/06/07 04:17:36;;;;;;;5.53;2.88;;;;;;;15.14;72.25;100858.47;5026436;28;20053;-68
2022/06/07 04:20:03;;;;;;;7.13;3.15;;;;;;;15.11;72.38;100856.88;5024316;28;20041;-68
2022/06/07 04:22:30;;;;;;;6.85;2.95;;;;;;;14.92;72.91;100864.38;5025549;28;20037;-67
2022/06/07 04:24:56;;;;;;;4.75;2.90;;;;;;;14.79;74.20;100866.13;5025190;28;20099;-67
2022/06/07 04:27:22;;;;;;;5.22;3.13;;;;;;;15.21;72.82;100861.53;5024038;28;20049;-67
2022/06/07 04:29:50;;;;;;;6.82;3.25;;;;;;;15.52;71.58;100858.50;5026515;28;20053;-68
2022/06/07 04:32:16;;;;;;;4.38;2.78;;;;;;;16.03;69.94;100862.72;5026270;28;20045;-67
2022/06/07 04:34:43;;;;;;;3.72;2.70;;;;;;;15.79;71.18;100860.97;5022912;28;20060;-67
2022/06/07 04:37:09;;;;;;;4.40;2.55;;;;;;;15.70;70.94;100856.34;5026891;28;20107;-68
2022/06/07 04:39:36;;;;;;;4.82;2.75;;;;;;;16.31;68.92;100858.88;5025141;28;20049;-67
2022/06/07 04:42:02;;;;;;;3.85;2.63;;;;;;;15.87;70.22;100861.25;5023364;28;20099;-67
2022/06/07 04:44:30;;;;;;;4.22;2.60;;;;;;;15.70;70.86;100856.34;5025333;28;20056;-67
2022/06/07 04:46:58;;;;;;;4.97;3.13;;;;;;;15.97;69.68;100855.19;5024586;28;20041;-69
2022/06/07 04:49:26;;;;;;;5.40;3.00;;;;;;;15.66;71.42;100860.16;5022182;28;20403;-68
2022/06/07 04:51:53;;;;;;;5.10;3.00;;;;;;;15.89;70.56;100854.91;5026362;28;20068;-67
2022/06/07 04:54:19;;;;;;;9.55;3.15;;;;;;;15.81;71.05;100854.63;5024263;28;20046;-68
2022/06/07 04:56:45;;;;;;;4.78;2.88;;;;;;;16.08;71.10;100851.78;5024365;28;20077;-67
2022/06/07 04:59:13;;;;;;;6.22;3.10;;;;;;;16.16;70.85;100853.88;5025225;28;20489;-67
2022/06/07 05:01:42;;;;;;;5.35;3.22;;;;;;;16.95;67.91;100848.81;5024202;28;20559;-67
2022/06/07 05:04:11;;;;;;;5.72;2.97;;;;;;;17.07;66.74;100841.72;5022803;28;20191;-67
2022/06/07 05:06:39;;;;;;;7.35;3.15;;;;;;;16.39;68.37;100851.22;5025521;28;20045;-67
2022/06/07 05:09:10;;;;;;;4.32;2.92;;;;;;;16.28;68.60;100851.19;5023446;28;20619;-67
2022/06/07 05:11:37;;;;;;;5.95;3.30;;;;;;;16.17;69.34;100853.75;5022678;28;20670;-67
2022/06/07 05:14:05;;;;;;;4.07;2.75;;;;;;;16.02;70.07;100854.88;5021683;28;20322;-67
2022/06/07 05:16:32;;;;;;;7.43;3.13;;;;;;;16.45;69.84;100856.06;5024189;28;20049;-68
2022/06/07 05:19:13;;;;;;;9.68;3.10;;;;;;;17.44;66.00;100851.16;5020020;28;20045;-67
2022/06/07 05:21:40;;;;;;;6.22;2.90;;;;;;;17.22;66.44;100854.63;5025609;28;20108;-67
2022/06/07 05:24:07;;;;;;;5.63;3.20;;;;;;;17.81;65.64;100859.72;5023889;28;20045;-67
2022/06/07 05:26:44;;;;;;;5.35;3.00;;;;;;;17.53;65.44;100855.72;5025304;28;20048;-67
2022/06/07 05:29:17;;;;;;;5.07;2.75;;;;;;;17.72;65.50;100856.00;5023927;28;20045;-67
2022/06/07 05:31:44;;;;;;;8.88;2.80;;;;;;;18.00;64.80;100859.91;5024281;28;20162;-67
2022/06/07 05:34:11;;;;;;;5.25;2.60;;;;;;;18.70;61.72;100857.66;5022909;28;20052;-67
2022/06/07 05:36:38;;;;;;;5.70;2.47;;;;;;;18.37;62.72;100863.94;5021944;28;20106;-67
2022/06/07 05:39:04;;;;;;;5.72;2.20;;;;;;;19.13;61.38;100862.88;5023560;28;20136;-67
2022/06/07 05:41:32;;;;;;;5.85;2.50;;;;;;;18.94;61.38;100862.75;5025074;28;20460;-67
2022/06/07 05:43:59;;;;;;;5.03;2.40;;;;;;;19.13;62.01;100862.03;5022617;28;20052;-67
2022/06/07 05:46:25;;;;;;;5.38;1.90;;;;;;;19.56;59.21;100864.50;5024061;28;20053;-67
2022/06/07 05:48:52;;;;;;;5.38;2.08;;;;;;;19.51;58.51;100854.25;5023767;28;20038;-67
2022/06/07 05:51:20;;;;;;;3.83;2.17;;;;;;;19.88;58.86;100854.56;5022400;28;20498;-68
2022/06/07 05:53:47;;;;;;;4.78;2.08;;;;;;;20.28;55.69;100863.34;5024644;28;20124;-68
2022/06/07 05:56:15;;;;;;;4.47;2.47;;;;;;;20.14;55.94;100863.69;5024385;28;20147;-67
2022/06/07 05:58:42;;;;;;;2.90;2.10;;;;;;;20.34;55.54;100867.28;5023422;28;20045;-68
2022/06/07 06:01:09;;;;;;;3.25;2.30;;;;;;;20.68;55.51;100865.03;5023095;28;20042;-67
2022/06/07 06:03:39;;;;;;;3.45;2.20;;;;;;;20.64;54.71;100871.63;5023507;28;20046;-67
2022/06/07 06:06:07;;;;;;;5.47;2.10;;;;;;;21.26;54.87;100868.47;5022106;28;20042;-67
2022/06/07 06:11:21;;;;;;;4.97;2.30;;;;;;;21.35;53.40;100871.13;5023207;28;20067;-66
2022/06/07 06:13:48;;;;;;;5.15;2.40;;;;;;;21.44;54.32;100877.41;5024840;28;20496;-66
2022/06/07 06:16:18;;;;;;;5.60;2.55;;;;;;;21.48;53.05;100870.81;5025355;28;20053;-66
2022/06/07 06:18:44;;;;;;;5.28;2.45;;;;;;;21.45;54.20;100868.44;5026169;28;20056;-66
2022/06/07 06:21:10;;;;;;;4.22;2.28;;;;;;;21.60;52.78;100866.97;5027749;28;20099;-67
2022/06/07 06:23:38;;;;;;;7.85;2.20;;;;;;;20.27;54.53;100877.59;5019489;28;20057;-66
2022/06/07 06:26:09;;;;;;;4.80;1.80;;;;;;;20.52;54.92;100872.75;5009410;28;20633;-66
2022/06/07 06:28:35;;;;;;;3.40;1.75;;;;;;;21.11;53.08;100876.09;5006391;28;20045;-66
2022/06/07 06:31:05;;;;;;;4.35;1.98;;;;;;;21.46;53.17;100867.44;5007338;28;20104;-66
2022/06/07 06:33:32;;;;;;;3.80;2.10;;;;;;;21.81;52.61;100872.06;5005734;28;20049;-66
2022/06/07 06:35:58;;;;;;;4.35;2.33;;;;;;;22.14;51.51;100875.97;5007332;28;20080;-66
2022/06/07 06:38:24;;;;;;;11.32;2.63;;;;;;;22.23;50.30;100873.25;5008068;28;20414;-66
2022/06/07 06:40:52;;;;;;;3.00;1.52;;;;;;;23.41;47.72;100870.25;5012227;28;20077;-66
2022/06/07 06:43:20;;;;;;;3.20;2.10;;;;;;;23.48;44.89;100869.47;5018876;28;20053;-66
2022/06/07 06:45:46;;;;;;;5.70;1.80;;;;;;;23.35;44.09;100871.72;5012266;28;20049;-66
2022/06/07 06:48:14;;;;;;;8.32;1.83;;;;;;;22.61;44.15;100872.13;5006616;28;20514;-66
2022/06/07 06:50:40;;;;;;;4.75;2.25;;;;;;;23.09;45.08;100861.03;5006224;28;20205;-67
2022/06/07 06:53:07;;;;;;;4.50;1.88;;;;;;;22.97;46.00;100866.78;5008023;28;20109;-67
2022/06/07 06:55:34;;;;;;;4.15;1.77;;;;;;;22.15;46.40;100862.50;5007053;28;20046;-67
2022/06/07 06:58:02;;;;;;;7.40;2.03;;;;;;;23.03;44.54;100863.47;5006670;28;20046;-66
2022/06/07 07:00:29;;;;;;;6.38;1.92;;;;;;;23.68;43.06;100854.88;5007306;28;20065;-66
2022/06/07 07:02:55;;;;;;;4.47;2.05;;;;;;;23.95;41.87;100867.16;5006698;28;20090;-66
2022/06/07 07:05:22;;;;;;;3.97;1.80;;;;;;;24.01;41.81;100855.81;5007622;28;20064;-66
2022/06/07 07:07:48;;;;;;;4.47;1.83;;;;;;;23.36;42.96;100862.69;4997743;28;20100;-66
2022/06/07 07:10:15;;;;;;;4.05;1.83;;;;;;;23.57;41.91;100854.31;5005878;28;20061;-66
2022/06/07 07:12:41;;;;;;;2.83;1.90;;;;;;;23.79;41.02;100863.59;5007094;28;20070;-66
2022/06/07 07:15:13;;;;;;;4.05;1.98;;;;;;;24.34;41.21;100859.44;5008923;28;20046;-66
2022/06/07 07:17:39;;;;;;;3.55;2.00;;;;;;;24.99;39.73;100849.59;5006181;28;20480;-67
2022/06/07 07:20:06;;;;;;;3.65;1.83;;;;;;;24.32;39.64;100861.44;5006051;28;20042;-67
2022/06/07 07:22:33;;;;;;;6.43;1.90;;;;;;;24.56;39.81;100852.59;5007772;28;20046;-66
2022/06/07 07:24:59;;;;;;;4.40;1.70;;;;;;;23.99;39.90;100851.59;5006386;28;20462;-66
2022/06/07 07:27:26;;;;;;;4.05;1.48;;;;;;;24.56;38.98;100849.91;5006918;28;20049;-66
2022/06/07 07:29:52;;;;;;;2.28;1.10;;;;;;;24.54;37.80;100835.81;5005800;28;20106;-66
2022/06/07 07:32:20;;;;;;;4.97;1.70;;;;;;;24.09;39.36;100846.97;5005189;28;20127;-66
2022/06/07 07:34:46;;;;;;;8.65;1.60;;;;;;;24.24;39.18;100838.13;5004661;28;20054;-66
2022/06/07 07:37:12;;;;;;;4.75;1.63;;;;;;;24.05;39.47;100838.44;5006145;28;20131;-66
2022/06/07 07:39:39;;;;;;;5.70;1.63;;;;;;;24.18;38.64;100830.78;5005937;28;20101;-66
2022/06/07 07:42:05;;;;;;;3.58;1.40;;;;;;;24.17;38.03;100845.16;5006647;28;20495;-66
2022/06/07 07:44:31;;;;;;;6.60;1.50;;;;;;;24.33;37.54;100832.78;5007120;28;20049;-66
2022/06/07 07:46:59;;;;;;;3.90;1.40;;;;;;;23.62;39.15;100843.94;5005338;28;20046;-66
2022/06/07 07:49:28;;;;;;;5.82;1.95;;;;;;;24.23;38.69;100827.59;4987263;28;20112;-66
2022/06/07 07:51:55;;;;;;;2.63;1.30;;;;;;;25.38;37.21;100828.22;5007821;28;20041;-66
2022/06/07 07:54:23;;;;;;;11.15;1.52;;;;;;;24.52;37.13;100836.00;5007219;28;20048;-66
2022/06/07 07:56:50;;;;;;;3.97;1.35;;;;;;;24.77;37.09;100833.31;5007704;28;20109;-66
2022/06/07 07:59:19;;;;;;;6.68;1.33;;;;;;;25.04;37.40;100833.84;5006232;28;20486;-66
2022/06/07 08:01:46;;;;;;;3.03;1.50;;;;;;;25.45;37.46;100823.00;5005637;28;20410;-66
2022/06/07 08:04:13;;;;;;;6.78;1.30;;;;;;;25.55;36.00;100826.34;5004614;28;20042;-66
2022/06/07 08:06:40;;;;;;;3.33;1.13;;;;;;;25.54;33.56;100822.81;5007738;28;20042;-66
2022/06/07 08:09:09;;;;;;;4.72;1.17;;;;;;;24.38;34.51;100822.44;5002498;28;20045;-66
2022/06/07 08:11:37;;;;;;;3.30;1.50;;;;;;;23.98;35.29;100832.00;5006022;28;20392;-66
2022/06/07 08:14:08;;;;;;;8.27;1.20;;;;;;;24.70;34.46;100833.16;5006640;28;20041;-66
2022/06/07 08:16:35;;;;;;;3.35;1.10;;;;;;;24.59;34.28;100820.94;5014036;28;20129;-66
2022/06/07 08:19:02;;;;;;;3.25;1.20;;;;;;;25.10;33.00;100824.25;5003975;28;20057;-66
2022/06/07 08:21:30;;;;;;;4.13;1.27;;;;;;;25.07;35.18;100822.75;5005307;28;20050;-66
2022/06/07 08:23:59;;;;;;;2.08;1.00;;;;;;;25.74;32.11;100828.63;5005947;28;20465;-67
2022/06/07 08:26:27;;;;;;;4.20;1.20;;;;;;;25.79;31.81;100812.81;5005509;28;20517;-66
2022/06/07 08:28:54;;;;;;;2.78;1.20;;;;;;;25.57;33.90;100821.66;5003237;28;20046;-67
2022/06/07 08:31:23;;;;;;;5.28;1.25;;;;;;;25.74;32.57;100819.72;5006158;28;20054;-67
2022/06/07 08:39:20;;;;;;;7.05;1.10;;;;;;;25.94;32.09;100813.72;5006191;28;20044;-67
2022/06/07 08:41:50;;;;;;;9.23;1.20;;;;;;;25.42;32.64;100815.28;5004384;28;20046;-67
2022/06/07 08:44:22;;;;;;;16.75;1.83;;;;;;;25.24;33.28;100798.59;5006006;28;20095;-66
2022/06/07 08:46:50;;;;;;;4.80;1.30;;;;;;;25.52;32.54;100797.16;5004349;28;20041;-66
2022/06/07 08:49:19;;;;;;;3.05;1.17;;;;;;;26.12;31.16;100800.88;5009082;28;20042;-66
2022/06/07 08:51:50;;;;;;;3.53;1.20;;;;;;;26.90;30.52;100795.22;5007074;28;20100;-66
2022/06/07 08:54:24;;;;;;;2.80;1.03;;;;;;;26.43;30.24;100794.59;5005122;28;20046;-66
2022/06/07 08:56:52;;;;;;;2.95;1.02;;;;;;;26.87;29.46;100787.50;5009852;28;20316;-66
2022/06/07 08:59:21;;;;;;;5.22;1.30;;;;;;;26.99;29.68;100780.66;5003163;28;20552;-67
2022/06/07 09:01:57;;;;;;;3.80;1.30;;;;;;;26.91;29.18;100774.53;5005377;28;20046;-67
2022/06/07 09:04:27;;;;;;;6.57;1.40;;;;;;;27.22;30.06;100782.44;5010056;28;20049;-67
2022/06/07 09:07:00;;;;;;;3.25;1.15;;;;;;;26.90;29.99;100778.25;5003988;28;20065;-67
2022/06/07 09:12:15;;;;;;;5.03;1.20;;;;;;;26.36;29.52;100772.16;5009835;28;20129;-68
2022/06/07 09:14:47;;;;;;;4.60;1.20;;;;;;;26.82;31.58;100772.91;5004598;28;20599;-68
2022/06/07 09:17:15;;;;;;;3.65;0.90;;;;;;;26.35;29.41;100776.69;5004248;28;20181;-68
2022/06/07 09:19:44;;;;;;;7.78;1.05;;;;;;;25.98;31.12;100765.84;5003745;28;20100;-68
2022/06/07 09:22:18;;;;;;;3.03;1.27;;;;;;;25.87;30.63;100758.22;5006195;28;20041;-67
2022/06/07 09:24:53;;;;;;;1.95;1.00;;;;;;;25.64;31.09;100772.44;5003994;28;20527;-69
2022/06/07 09:27:22;;;;;;;8.48;1.13;;;;;;;26.01;31.72;100766.34;5003934;28;20628;-68
2022/06/07 09:29:55;;;;;;;1.88;0.90;;;;;;;25.27;30.44;100763.34;5002844;28;20092;-68
2022/06/07 09:32:24;;;;;;;4.35;1.10;;;;;;;25.16;31.27;100753.81;5001248;28;20046;-68
2022/06/07 09:34:56;;;;;;;2.72;0.98;;;;;;;25.73;30.60;100757.09;5004524;28;20104;-68
2022/06/07 09:37:28;;;;;;;2.17;1.35;;;;;;;25.65;30.16;100759.81;5009700;28;20052;-68
2022/06/07 09:40:03;;;;;;;6.63;1.92;;;;;;;26.05;31.39;100748.81;5003510;28;20045;-68
2022/06/07 09:42:31;;;;;;;3.35;1.15;;;;;;;27.16;29.27;100742.81;5003806;28;20453;-68
2022/06/07 09:45:19;;;;;;;1.70;0.93;;;;;;;27.48;34.32;100750.50;5004412;28;20096;-68
2022/06/07 09:47:45;;;;;;;2.55;1.35;;;;;;;27.32;27.87;100737.22;5001925;28;20134;-68
2022/06/07 09:50:19;;;;;;;4.07;1.00;;;;;;;26.00;28.82;100761.13;5004039;28;20092;-68
2022/06/07 09:52:47;;;;;;;4.35;1.10;;;;;;;25.43;30.26;100752.50;5007601;28;20045;-68
2022/06/07 09:55:22;;;;;;;6.22;1.23;;;;;;;25.77;29.95;100742.31;5011768;28;20058;-68
2022/06/07 09:58:00;;;;;;;5.72;1.20;;;;;;;26.46;30.86;100730.53;5007720;28;20564;-69
2022/06/07 10:00:34;;;;;;;4.50;1.27;;;;;;;27.14;28.62;100736.75;5008378;28;20517;-68
2022/06/07 10:03:25;;;;;;;2.05;1.08;;;;;;;27.59;28.27;100733.84;5007720;28;20042;-68
2022/06/07 10:06:04;;;;;;;4.45;0.98;;;;;;;27.89;26.92;100718.44;5006971;28;20046;-68
2022/06/07 10:08:46;;;;;;;9.95;1.50;;;;;;;27.75;28.60;100722.03;5012492;28;20054;-68
2022/06/07 10:11:16;;;;;;;;;;;;;;;27.67;27.31;100717.59;5008006;28;20046;-68
2022/06/07 10:13:56;;;;;;;8.88;1.45;;;;;;;27.24;27.99;100721.16;5009344;28;19921;-68
2022/06/07 10:16:31;;;;;;;2.80;0.98;;;;;;;27.25;27.37;100717.44;5002132;28;20397;-68
2022/06/07 10:19:11;;;;;;;2.63;0.90;;;;;;;26.06;29.62;100734.38;5007114;28;20405;-68
2022/06/07 10:22:04;;;;;;;2.70;0.98;;;;;;;26.12;28.97;100725.63;5011668;28;20482;-68
2022/06/07 10:24:41;;;;;;;3.20;0.95;;;;;;;25.79;29.03;100729.56;5006488;28;20395;-68
2022/06/07 10:27:19;;;;;;;4.10;1.23;;;;;;;25.69;30.01;100718.19;5007431;28;20100;-68
2022/06/07 10:30:10;;;;;;;5.35;0.90;;;;;;;25.10;30.13;100717.78;5006438;28;20054;-68
2022/06/07 10:32:46;;;;;;;2.33;0.90;;;;;;;24.67;31.52;100731.59;5008805;28;20104;-69
2022/06/07 10:38:21;;;;;;;2.75;1.10;;;;;;;25.24;31.86;100726.13;5001023;28;20050;-68
2022/06/07 10:40:54;;;;;;;5.07;1.10;;;;;;;24.90;30.67;100723.72;5009676;28;20127;-68
2022/06/07 10:43:25;;;;;;;2.20;1.00;;;;;;;24.66;30.69;100724.56;5001465;28;20050;-68
2022/06/07 10:45:57;;;;;;;7.25;1.27;;;;;;;25.05;31.65;100719.31;5011697;28;20054;-68
2022/06/07 10:48:33;;;;;;;3.92;0.90;;;;;;;24.72;31.28;100713.97;5008852;28;20069;-68
2022/06/07 10:51:06;;;;;;;2.22;1.20;;;;;;;24.52;31.19;100717.22;5007961;28;20128;-68
2022/06/07 10:53:39;;;;;;;3.25;1.00;;;;;;;24.75;31.55;100718.19;5012223;28;20045;-68
2022/06/07 10:56:15;;;;;;;2.85;1.00;;;;;;;25.20;31.00;100715.72;5004189;28;20537;-68
2022/06/07 10:58:45;;;;;;;3.05;1.00;;;;;;;25.52;29.63;100708.56;5006387;28;20648;-68
2022/06/07 11:01:15;;;;;;;2.10;0.98;;;;;;;25.50;30.09;100710.53;5006860;28;20125;-68
2022/06/07 11:03:53;;;;;;;4.30;1.13;;;;;;;26.05;30.11;100710.41;5006757;28;20038;-68
2022/06/07 11:09:23;;;;;;;8.57;1.20;;;;;;;26.87;28.10;100696.03;4995598;28;20706;-68
2022/06/07 11:11:53;;;;;;;7.30;1.08;;;;;;;26.24;28.52;100709.91;5003878;28;20469;-68
2022/06/07 11:14:34;;;;;;;3.25;1.00;;;;;;;27.19;29.12;100710.13;4991172;28;20410;-68
2022/06/07 11:17:07;;;;;;;2.47;1.00;;;;;;;26.66;27.28;100695.91;5003816;28;20494;-68
2022/06/07 11:19:34;;;;;;;1.70;0.73;;;;;;;27.15;27.37;100701.59;5003172;28;20319;-68
2022/06/07 11:22:04;;;;;;;3.70;0.70;;;;;;;26.12;26.56;100701.44;5007378;28;20494;-68
2022/06/07 11:24:33;;;;;;;15.43;1.30;;;;;;;25.66;29.38;100695.22;5012648;28;20049;-69
2022/06/07 11:27:13;;;;;;;6.22;1.00;;;;;;;26.10;29.00;100700.75;5006001;28;20069;-68
2022/06/07 11:29:41;;;;;;;5.82;1.10;;;;;;;26.18;28.23;100683.75;5003324;28;20050;-68
2022/06/07 11:32:39;;;;;;;2.60;0.80;;;;;;;26.38;28.53;100681.41;5005361;28;20046;-68
2022/06/07 11:35:45;;;;;;;3.20;0.88;;;;;;;26.38;29.09;100682.25;5006741;28;20045;-69
2022/06/07 11:38:30;;;;;;;4.22;0.95;;;;;;;25.52;30.13;100695.13;5002556;28;20476;-69
2022/06/07 11:44:01;;;;;;;1.42;0.88;;;;;;;25.05;30.12;100697.84;5014210;28;20107;-69
2022/06/07 11:46:39;;;;;;;3.92;0.95;;;;;;;24.73;30.70;100688.84;5007550;28;20073;-69
2022/06/07 11:49:39;;;;;;;6.10;0.90;;;;;;;24.42;30.95;100703.16;5005527;28;20046;-68
2022/06/07 11:52:22;;;;;;;1.33;0.70;;;;;;;24.92;29.74;100692.19;5005791;28;20056;-67
2022/06/07 11:54:53;;;;;;;2.03;0.95;;;;;;;25.57;30.75;100690.06;5009585;28;20054;-68
2022/06/07 11:57:31;;;;;;;1.95;0.90;;;;;;;26.84;31.69;100688.34;5005218;28;20065;-69
2022/06/07 12:00:00;;;;;;;2.65;1.00;;;;;;;27.51;30.42;100675.56;5004745;28;20100;-69
2022/06/07 12:02:32;;;;;;;4.18;0.95;;;;;;;27.39;25.96;100676.19;5006568;28;20050;-68
2022/06/07 12:05:07;;;;;;;2.28;0.90;;;;;;;26.66;26.93;100670.84;5003351;28;20522;-69
2022/06/07 12:07:43;;;;;;;2.45;0.98;;;;;;;26.91;27.04;100673.13;5007110;28;20581;-69